Iberica Hav — C6YI3 — position and weather

sailwx.info

Track history (hours):
 
Tides and Currents Weather Stations Pressure Air Temp Water Temp Dewpoint Dewpoint Depression Visibility Wind Speed Wind Dir Waves Ship Positions

Iberica Hav

Last reported at 2014-Oct-01 11:29 UTC. Time now 2014-Oct-01 12:20 UTC.
Position N 55°33' E 014°22'.

Length 88 m; draft 3.8 m.

Type: Cargo ship. MMSI: 311034400.

Date/timePositionNaut miles runAvg speedWind from/ knotsBaromVisibWave heightAir tempDewpointWater temp
2014-Oct-01 11:29N 55°33' E 014°22'0 0.0
2014-Oct-01 10:23N 55°33' E 014°22'0 0.0
2014-Oct-01 09:17N 55°33' E 014°22'0 0.0
2014-Oct-01 08:29N 55°33' E 014°22'0 0.0
2014-Oct-01 07:29N 55°33' E 014°22'0 0.0
2014-Oct-01 06:23N 55°33' E 014°22'0 0.0
2014-Oct-01 05:29N 55°33' E 014°22'0 0.0
2014-Oct-01 04:29N 55°33' E 014°22'0 0.0
2014-Oct-01 03:29N 55°33' E 014°22'0 0.0
2014-Oct-01 02:29N 55°33' E 014°22'0 0.0
2014-Oct-01 01:29N 55°33' E 014°22'0 0.0
2014-Oct-01 00:29N 55°33' E 014°22'0 0.0
2014-Sep-30 23:29N 55°33' E 014°22'0 0.0
2014-Sep-30 22:29N 55°33' E 014°22'0 0.0
2014-Sep-30 21:29N 55°33' E 014°22'0 0.0
2014-Sep-30 20:29N 55°33' E 014°22'0 0.0
2014-Sep-30 19:29N 55°33' E 014°22'0 0.0
2014-Sep-30 18:23N 55°33' E 014°22'0 0.0
2014-Sep-30 17:29N 55°33' E 014°22'0 0.0
2014-Sep-30 16:29N 55°33' E 014°22'0 0.0
2014-Sep-30 15:23N 55°33' E 014°22'0 0.0
2014-Sep-30 14:29N 55°33' E 014°22'0 0.5
2014-Sep-30 13:33N 55°34' E 014°22'8 8.1
2014-Sep-30 12:33N 55°32' E 014°36'8 8.0
2014-Sep-30 11:33N 55°30' E 014°50'8 8.3
2014-Sep-30 10:33N 55°28' E 015°04'8 8.0
2014-Sep-30 09:33N 55°25' E 015°18'8 8.1
2014-Sep-30 08:33N 55°23' E 015°31'84 8.3
2014-Sep-29 22:28N 55°02' E 017°53'7 8.1
2014-Sep-29 21:33N 55°00' E 018°06'8 8.1
2014-Sep-29 20:33N 54°58' E 018°19'8 8.1
2014-Sep-29 19:33N 54°56' E 018°33'8 7.9
2014-Sep-29 18:33N 54°52' E 018°45'8 8.0
2014-Sep-29 17:34N 54°47' E 018°56'8 7.6
2014-Sep-29 16:34N 54°39' E 018°57'8 8.1
2014-Sep-29 15:34N 54°33' E 018°49'8 7.8
2014-Sep-29 14:34N 54°32' E 018°36'3 2.6
2014-Sep-29 13:32N 54°32' E 018°31'0 0.0
2014-Sep-29 12:32N 54°32' E 018°31'0 0.0
2014-Sep-29 11:32N 54°32' E 018°31'0 0.0
2014-Sep-29 10:32N 54°32' E 018°31'0 0.0
2014-Sep-29 09:29N 54°32' E 018°31'0 0.0
2014-Sep-29 08:32N 54°32' E 018°31'0 0.0
2014-Sep-29 07:32N 54°32' E 018°31'0 0.0
2014-Sep-29 06:32N 54°32' E 018°31'0 0.0
2014-Sep-29 05:32N 54°32' E 018°31'0 0.0
2014-Sep-29 04:29N 54°32' E 018°31'0 0.0
2014-Sep-29 03:32N 54°32' E 018°31'1 1.1
2014-Sep-29 02:33N 54°32' E 018°33'7 7.4
2014-Sep-29 01:34N 54°32' E 018°46'9 9.0
2014-Sep-29 00:33N 54°39' E 018°56'8 8.4
2014-Sep-28 23:34N 54°41' E 019°10'8 8.4
2014-Sep-28 22:33N 54°41' E 019°25'8 8.4
2014-Sep-28 21:33N 54°42' E 019°39'9 8.7
2014-Sep-28 20:31N 54°38' E 019°54'11 8.6
2014-Sep-28 19:17N 54°41' E 020°11'  
Track history (hours):
 
Tides and Currents Weather Stations Pressure Air Temp Water Temp Dewpoint Dewpoint Depression Visibility Wind Speed Wind Dir Waves Ship Positions

Iberica Hav

Last reported at 2014-Oct-01 11:29 UTC. Time now 2014-Oct-01 12:20 UTC.
Position N 55°33' E 014°22'.

Length 88 m; draft 3.8 m.

Type: Cargo ship. MMSI: 311034400.

Date/timePositionNaut miles runAvg speedWind from/ knotsBaromVisibWave heightAir tempDewpointWater temp
2014-Oct-01 11:29N 55°33' E 014°22'0 0.0
2014-Oct-01 10:23N 55°33' E 014°22'0 0.0
2014-Oct-01 09:17N 55°33' E 014°22'0 0.0
2014-Oct-01 08:29N 55°33' E 014°22'0 0.0
2014-Oct-01 07:29N 55°33' E 014°22'0 0.0
2014-Oct-01 06:23N 55°33' E 014°22'0 0.0
2014-Oct-01 05:29N 55°33' E 014°22'0 0.0
2014-Oct-01 04:29N 55°33' E 014°22'0 0.0
2014-Oct-01 03:29N 55°33' E 014°22'0 0.0
2014-Oct-01 02:29N 55°33' E 014°22'0 0.0
2014-Oct-01 01:29N 55°33' E 014°22'0 0.0
2014-Oct-01 00:29N 55°33' E 014°22'0 0.0
2014-Sep-30 23:29N 55°33' E 014°22'0 0.0
2014-Sep-30 22:29N 55°33' E 014°22'0 0.0
2014-Sep-30 21:29N 55°33' E 014°22'0 0.0
2014-Sep-30 20:29N 55°33' E 014°22'0 0.0
2014-Sep-30 19:29N 55°33' E 014°22'0 0.0
2014-Sep-30 18:23N 55°33' E 014°22'0 0.0
2014-Sep-30 17:29N 55°33' E 014°22'0 0.0
2014-Sep-30 16:29N 55°33' E 014°22'0 0.0
2014-Sep-30 15:23N 55°33' E 014°22'0 0.0
2014-Sep-30 14:29N 55°33' E 014°22'0 0.5
2014-Sep-30 13:33N 55°34' E 014°22'8 8.1
2014-Sep-30 12:33N 55°32' E 014°36'8 8.0
2014-Sep-30 11:33N 55°30' E 014°50'8 8.3
2014-Sep-30 10:33N 55°28' E 015°04'8 8.0
2014-Sep-30 09:33N 55°25' E 015°18'8 8.1
2014-Sep-30 08:33N 55°23' E 015°31'84 8.3
2014-Sep-29 22:28N 55°02' E 017°53'7 8.1
2014-Sep-29 21:33N 55°00' E 018°06'8 8.1
2014-Sep-29 20:33N 54°58' E 018°19'8 8.1
2014-Sep-29 19:33N 54°56' E 018°33'8 7.9
2014-Sep-29 18:33N 54°52' E 018°45'8 8.0
2014-Sep-29 17:34N 54°47' E 018°56'8 7.6
2014-Sep-29 16:34N 54°39' E 018°57'8 8.1
2014-Sep-29 15:34N 54°33' E 018°49'8 7.8
2014-Sep-29 14:34N 54°32' E 018°36'3 2.6
2014-Sep-29 13:32N 54°32' E 018°31'0 0.0
2014-Sep-29 12:32N 54°32' E 018°31'0 0.0
2014-Sep-29 11:32N 54°32' E 018°31'0 0.0
2014-Sep-29 10:32N 54°32' E 018°31'0 0.0
2014-Sep-29 09:29N 54°32' E 018°31'0 0.0
2014-Sep-29 08:32N 54°32' E 018°31'0 0.0
2014-Sep-29 07:32N 54°32' E 018°31'0 0.0
2014-Sep-29 06:32N 54°32' E 018°31'0 0.0
2014-Sep-29 05:32N 54°32' E 018°31'0 0.0
2014-Sep-29 04:29N 54°32' E 018°31'0 0.0
2014-Sep-29 03:32N 54°32' E 018°31'1 1.1
2014-Sep-29 02:33N 54°32' E 018°33'7 7.4
2014-Sep-29 01:34N 54°32' E 018°46'9 9.0
2014-Sep-29 00:33N 54°39' E 018°56'8 8.4
2014-Sep-28 23:34N 54°41' E 019°10'8 8.4
2014-Sep-28 22:33N 54°41' E 019°25'8 8.4
2014-Sep-28 21:33N 54°42' E 019°39'9 8.7
2014-Sep-28 20:31N 54°38' E 019°54'11 8.6
2014-Sep-28 19:17N 54°41' E 020°11'  

Dump ship's entire track history